Pagrindinis puslapis
METAR-TAF:

METAR-TAF

Oro uostai :

Punta Caucedo, Dominikos Respublika

platuma: 18-26N, ilguma: 069-40W, Aukštis: 18 m

Dabartinis oras

Ataskaita buvo paskelbta 1 valandą ir 7 minutes, ne 00:00 UTC
Vėjas 8 kt iš Rytų/Pietryčių
Temperatūra 29°C
Drėgmė 79%
Slėgis 1016 hPa
Matomumas 10 km arba daugiau
Mažai debesys ne aukštis 1800 ft

METAR: MDSD 050000Z 12008KT 9999 FEW018 29/25 Q1016

Laikas: 21:07 (01:07 UTC)

Prognozė

Ataskaita buvo paskelbta 3 valandos ir 7 minutes, ne 22:00 UTC
Prognozė galioja nuo 05 metu 00 UTC su 06 metu 00 UTC
Vėjas 8 kt iš Rytų/Pietryčių
Matomumas 10 km arba daugiau
Mažai debesys ne aukštis 1800 ft
Tapsmas
nuo 05 metu 03 UTC su 05 metu 05 UTC
Vėjas 4 kt iš Šiaurės/Šiaurės Rytų

TAF: MDSD 042200Z 0500/0600 12008KT 9999 FEW018 BECMG 0503/0505 03004KT

Orai ataskaitas ir orų prognozės (METAR, TAF).

turimą stotys yra geltonos ir raudonos taškus žemėlapyje.

Perkelti pele per norėdami pamatyti stoties vardą.

Tada spustelėkite, norėdami matyti oro stebėjimo ir prognozės.

Norėdami pakeisti žemėlapį: spustelėkite ant žalios mygtukų su juodo kryžiaus žemyn,; žalią mygtuką su brūkšneliu, jei norite nutolinti; arba žalių rodyklių gretimoms žemėlapius.


METAR-TAF: